sensor_id;sensor_type;location;lat;lon;timestamp;P1;durP1;ratioP1;P2;durP2;ratioP2
35114;SDS011;21292;52.416;13.046;2022-12-18T00:00:03;112.43;;;31.30;;
35114;SDS011;21292;52.416;13.046;2022-12-18T00:02:32;113.28;;;28.50;;
35114;SDS011;21292;52.416;13.046;2022-12-18T00:05:00;116.28;;;29.80;;
35114;SDS011;21292;52.416;13.046;2022-12-18T00:07:28;117.82;;;30.55;;
35114;SDS011;21292;52.416;13.046;2022-12-18T00:09:58;126.55;;;30.52;;
35114;SDS011;21292;52.416;13.046;2022-12-18T00:12:25;106.65;;;28.55;;
35114;SDS011;21292;52.416;13.046;2022-12-18T00:14:56;107.90;;;28.42;;
35114;SDS011;21292;52.416;13.046;2022-12-18T00:17:23;124.68;;;30.77;;
35114;SDS011;21292;52.416;13.046;2022-12-18T00:19:51;121.97;;;31.48;;
35114;SDS011;21292;52.416;13.046;2022-12-18T00:22:19;129.40;;;33.33;;
35114;SDS011;21292;52.416;13.046;2022-12-18T00:24:48;128.00;;;30.70;;
35114;SDS011;21292;52.416;13.046;2022-12-18T00:27:17;132.65;;;31.67;;
35114;SDS011;21292;52.416;13.046;2022-12-18T00:29:45;103.22;;;28.33;;
35114;SDS011;21292;52.416;13.046;2022-12-18T00:32:13;121.45;;;32.60;;
35114;SDS011;21292;52.416;13.046;2022-12-18T00:34:41;130.90;;;32.95;;
35114;SDS011;21292;52.416;13.046;2022-12-18T00:37:09;124.25;;;30.20;;
35114;SDS011;21292;52.416;13.046;2022-12-18T00:39:44;134.50;;;34.10;;
35114;SDS011;21292;52.416;13.046;2022-12-18T00:42:12;159.55;;;35.22;;
35114;SDS011;21292;52.416;13.046;2022-12-18T00:44:59;147.45;;;32.80;;
35114;SDS011;21292;52.416;13.046;2022-12-18T00:47:27;130.15;;;33.72;;
35114;SDS011;21292;52.416;13.046;2022-12-18T00:49:55;138.95;;;35.17;;
35114;SDS011;21292;52.416;13.046;2022-12-18T00:52:23;131.18;;;32.38;;
35114;SDS011;21292;52.416;13.046;2022-12-18T00:54:51;127.43;;;32.70;;
35114;SDS011;21292;52.416;13.046;2022-12-18T00:57:19;138.45;;;33.33;;
35114;SDS011;21292;52.416;13.046;2022-12-18T00:59:47;139.88;;;33.55;;
35114;SDS011;21292;52.416;13.046;2022-12-18T01:02:17;136.30;;;32.58;;
35114;SDS011;21292;52.416;13.046;2022-12-18T01:04:45;121.53;;;29.30;;
35114;SDS011;21292;52.416;13.046;2022-12-18T01:07:13;122.40;;;29.67;;
35114;SDS011;21292;52.416;13.046;2022-12-18T01:09:41;138.45;;;32.58;;
35114;SDS011;21292;52.416;13.046;2022-12-18T01:12:09;160.95;;;35.80;;
35114;SDS011;21292;52.416;13.046;2022-12-18T01:14:37;137.45;;;32.03;;
35114;SDS011;21292;52.416;13.046;2022-12-18T01:17:05;137.13;;;31.98;;
35114;SDS011;21292;52.416;13.046;2022-12-18T01:19:34;137.40;;;32.47;;
35114;SDS011;21292;52.416;13.046;2022-12-18T01:22:02;134.07;;;33.03;;
35114;SDS011;21292;52.416;13.046;2022-12-18T01:24:30;137.60;;;34.53;;
35114;SDS011;21292;52.416;13.046;2022-12-18T01:26:58;135.40;;;31.83;;
35114;SDS011;21292;52.416;13.046;2022-12-18T01:29:26;112.28;;;26.67;;
35114;SDS011;21292;52.416;13.046;2022-12-18T01:31:55;136.23;;;37.22;;
35114;SDS011;21292;52.416;13.046;2022-12-18T01:34:24;167.60;;;33.72;;
35114;SDS011;21292;52.416;13.046;2022-12-18T01:36:53;158.10;;;34.75;;
35114;SDS011;21292;52.416;13.046;2022-12-18T01:39:21;151.57;;;36.30;;
35114;SDS011;21292;52.416;13.046;2022-12-18T01:41:49;158.38;;;38.45;;
35114;SDS011;21292;52.416;13.046;2022-12-18T01:44:51;167.85;;;35.53;;
35114;SDS011;21292;52.416;13.046;2022-12-18T01:47:23;149.98;;;35.03;;
35114;SDS011;21292;52.416;13.046;2022-12-18T01:49:55;146.45;;;34.13;;
35114;SDS011;21292;52.416;13.046;2022-12-18T01:52:26;143.85;;;33.58;;
35114;SDS011;21292;52.416;13.046;2022-12-18T01:57:24;136.27;;;31.25;;
35114;SDS011;21292;52.416;13.046;2022-12-18T01:59:53;134.38;;;30.75;;
35114;SDS011;21292;52.416;13.046;2022-12-18T02:02:21;132.10;;;30.27;;
35114;SDS011;21292;52.416;13.046;2022-12-18T02:04:50;149.60;;;32.97;;
35114;SDS011;21292;52.416;13.046;2022-12-18T02:07:20;135.57;;;32.25;;
35114;SDS011;21292;52.416;13.046;2022-12-18T02:09:55;130.20;;;31.52;;
35114;SDS011;21292;52.416;13.046;2022-12-18T02:12:29;135.45;;;32.05;;
35114;SDS011;21292;52.416;13.046;2022-12-18T02:15:02;154.57;;;34.17;;
35114;SDS011;21292;52.416;13.046;2022-12-18T02:17:35;143.55;;;33.50;;
35114;SDS011;21292;52.416;13.046;2022-12-18T02:20:07;142.13;;;34.22;;
35114;SDS011;21292;52.416;13.046;2022-12-18T02:22:44;137.45;;;34.17;;
35114;SDS011;21292;52.416;13.046;2022-12-18T02:25:21;136.35;;;32.83;;
35114;SDS011;21292;52.416;13.046;2022-12-18T02:27:59;133.88;;;33.00;;
35114;SDS011;21292;52.416;13.046;2022-12-18T02:30:29;144.27;;;34.95;;
35114;SDS011;21292;52.416;13.046;2022-12-18T02:32:59;138.70;;;33.88;;
35114;SDS011;21292;52.416;13.046;2022-12-18T02:35:29;130.48;;;31.90;;
35114;SDS011;21292;52.416;13.046;2022-12-18T02:37:58;144.50;;;33.55;;
35114;SDS011;21292;52.416;13.046;2022-12-18T02:40:26;133.75;;;32.45;;
35114;SDS011;21292;52.416;13.046;2022-12-18T02:42:55;123.20;;;31.75;;
35114;SDS011;21292;52.416;13.046;2022-12-18T02:45:34;129.07;;;30.15;;
35114;SDS011;21292;52.416;13.046;2022-12-18T02:48:02;129.90;;;33.70;;
35114;SDS011;21292;52.416;13.046;2022-12-18T02:50:31;120.15;;;31.65;;
35114;SDS011;21292;52.416;13.046;2022-12-18T02:53:06;137.50;;;33.58;;
35114;SDS011;21292;52.416;13.046;2022-12-18T02:55:42;125.13;;;33.08;;
35114;SDS011;21292;52.416;13.046;2022-12-18T02:58:18;120.72;;;32.75;;
35114;SDS011;21292;52.416;13.046;2022-12-18T03:03:21;117.95;;;29.98;;
35114;SDS011;21292;52.416;13.046;2022-12-18T03:05:52;123.78;;;28.33;;
35114;SDS011;21292;52.416;13.046;2022-12-18T03:08:21;124.88;;;33.17;;
35114;SDS011;21292;52.416;13.046;2022-12-18T03:10:51;118.63;;;32.80;;
35114;SDS011;21292;52.416;13.046;2022-12-18T03:13:25;121.68;;;31.15;;
35114;SDS011;21292;52.416;13.046;2022-12-18T03:15:57;128.43;;;33.25;;
35114;SDS011;21292;52.416;13.046;2022-12-18T03:18:29;137.38;;;32.80;;
35114;SDS011;21292;52.416;13.046;2022-12-18T03:23:27;132.80;;;33.03;;
35114;SDS011;21292;52.416;13.046;2022-12-18T03:25:59;145.02;;;35.65;;
35114;SDS011;21292;52.416;13.046;2022-12-18T03:28:35;137.82;;;32.65;;
35114;SDS011;21292;52.416;13.046;2022-12-18T03:31:05;130.20;;;32.17;;
35114;SDS011;21292;52.416;13.046;2022-12-18T03:33:37;143.25;;;34.65;;
35114;SDS011;21292;52.416;13.046;2022-12-18T03:36:07;147.55;;;34.28;;
35114;SDS011;21292;52.416;13.046;2022-12-18T03:38:35;128.20;;;32.03;;
35114;SDS011;21292;52.416;13.046;2022-12-18T03:41:05;112.15;;;30.20;;
35114;SDS011;21292;52.416;13.046;2022-12-18T03:43:40;145.80;;;36.08;;
35114;SDS011;21292;52.416;13.046;2022-12-18T03:46:12;144.27;;;37.05;;
35114;SDS011;21292;52.416;13.046;2022-12-18T03:48:44;136.98;;;32.05;;
35114;SDS011;21292;52.416;13.046;2022-12-18T03:51:16;158.43;;;38.75;;
35114;SDS011;21292;52.416;13.046;2022-12-18T03:53:49;155.73;;;39.20;;
35114;SDS011;21292;52.416;13.046;2022-12-18T03:56:21;150.32;;;36.70;;
35114;SDS011;21292;52.416;13.046;2022-12-18T03:58:52;135.77;;;32.60;;
35114;SDS011;21292;52.416;13.046;2022-12-18T04:01:20;130.10;;;34.00;;
35114;SDS011;21292;52.416;13.046;2022-12-18T04:03:52;134.27;;;34.65;;
35114;SDS011;21292;52.416;13.046;2022-12-18T04:06:20;129.65;;;34.70;;
35114;SDS011;21292;52.416;13.046;2022-12-18T04:08:49;138.10;;;31.92;;
35114;SDS011;21292;52.416;13.046;2022-12-18T04:11:18;141.05;;;33.53;;
35114;SDS011;21292;52.416;13.046;2022-12-18T04:13:46;141.48;;;34.05;;
35114;SDS011;21292;52.416;13.046;2022-12-18T04:16:15;147.27;;;33.67;;
35114;SDS011;21292;52.416;13.046;2022-12-18T04:18:43;141.00;;;33.50;;
35114;SDS011;21292;52.416;13.046;2022-12-18T04:21:11;143.90;;;33.33;;
35114;SDS011;21292;52.416;13.046;2022-12-18T04:23:39;178.68;;;31.70;;
35114;SDS011;21292;52.416;13.046;2022-12-18T04:26:08;109.07;;;29.05;;
35114;SDS011;21292;52.416;13.046;2022-12-18T04:28:36;127.75;;;29.52;;
35114;SDS011;21292;52.416;13.046;2022-12-18T04:31:04;109.38;;;27.75;;
35114;SDS011;21292;52.416;13.046;2022-12-18T04:33:34;116.43;;;29.23;;
35114;SDS011;21292;52.416;13.046;2022-12-18T04:36:03;109.28;;;25.67;;
35114;SDS011;21292;52.416;13.046;2022-12-18T04:38:31;110.22;;;28.48;;
35114;SDS011;21292;52.416;13.046;2022-12-18T04:41:00;133.60;;;30.58;;
35114;SDS011;21292;52.416;13.046;2022-12-18T04:43:28;136.02;;;32.65;;
35114;SDS011;21292;52.416;13.046;2022-12-18T04:46:01;112.13;;;28.88;;
35114;SDS011;21292;52.416;13.046;2022-12-18T04:48:29;116.47;;;29.95;;
35114;SDS011;21292;52.416;13.046;2022-12-18T04:50:59;112.43;;;30.17;;
35114;SDS011;21292;52.416;13.046;2022-12-18T04:53:27;125.07;;;30.15;;
35114;SDS011;21292;52.416;13.046;2022-12-18T04:56:02;127.25;;;31.40;;
35114;SDS011;21292;52.416;13.046;2022-12-18T04:58:31;137.32;;;31.13;;
35114;SDS011;21292;52.416;13.046;2022-12-18T05:00:59;136.35;;;33.53;;
35114;SDS011;21292;52.416;13.046;2022-12-18T05:03:27;134.75;;;32.22;;
35114;SDS011;21292;52.416;13.046;2022-12-18T05:05:55;151.27;;;37.72;;
35114;SDS011;21292;52.416;13.046;2022-12-18T05:08:25;132.60;;;32.22;;
35114;SDS011;21292;52.416;13.046;2022-12-18T05:10:57;125.15;;;32.83;;
35114;SDS011;21292;52.416;13.046;2022-12-18T05:13:26;125.55;;;30.52;;
35114;SDS011;21292;52.416;13.046;2022-12-18T05:15:54;116.55;;;30.90;;
35114;SDS011;21292;52.416;13.046;2022-12-18T05:18:23;122.35;;;31.88;;
35114;SDS011;21292;52.416;13.046;2022-12-18T05:20:52;129.52;;;31.73;;
35114;SDS011;21292;52.416;13.046;2022-12-18T05:23:21;128.20;;;29.40;;
35114;SDS011;21292;52.416;13.046;2022-12-18T05:25:51;118.38;;;31.58;;
35114;SDS011;21292;52.416;13.046;2022-12-18T05:28:20;140.95;;;34.25;;
35114;SDS011;21292;52.416;13.046;2022-12-18T05:30:48;125.75;;;31.42;;
35114;SDS011;21292;52.416;13.046;2022-12-18T05:33:17;121.75;;;32.20;;
35114;SDS011;21292;52.416;13.046;2022-12-18T05:35:49;114.80;;;30.92;;
35114;SDS011;21292;52.416;13.046;2022-12-18T05:38:17;124.38;;;32.58;;
35114;SDS011;21292;52.416;13.046;2022-12-18T05:40:46;128.93;;;32.92;;
35114;SDS011;21292;52.416;13.046;2022-12-18T05:43:16;131.57;;;31.67;;
35114;SDS011;21292;52.416;13.046;2022-12-18T05:45:47;122.47;;;34.42;;
35114;SDS011;21292;52.416;13.046;2022-12-18T05:48:16;117.53;;;30.38;;
35114;SDS011;21292;52.416;13.046;2022-12-18T05:50:44;119.63;;;32.90;;
35114;SDS011;21292;52.416;13.046;2022-12-18T05:53:13;123.35;;;30.63;;
35114;SDS011;21292;52.416;13.046;2022-12-18T05:55:42;128.85;;;34.20;;
35114;SDS011;21292;52.416;13.046;2022-12-18T05:58:11;124.35;;;31.13;;
35114;SDS011;21292;52.416;13.046;2022-12-18T06:00:42;142.77;;;33.15;;
35114;SDS011;21292;52.416;13.046;2022-12-18T06:03:11;143.60;;;35.75;;
35114;SDS011;21292;52.416;13.046;2022-12-18T06:05:41;142.88;;;33.75;;
35114;SDS011;21292;52.416;13.046;2022-12-18T06:08:10;120.28;;;31.05;;
35114;SDS011;21292;52.416;13.046;2022-12-18T06:10:38;126.78;;;34.03;;
35114;SDS011;21292;52.416;13.046;2022-12-18T06:13:06;134.63;;;30.15;;
35114;SDS011;21292;52.416;13.046;2022-12-18T06:15:36;163.13;;;35.10;;
35114;SDS011;21292;52.416;13.046;2022-12-18T06:18:05;135.27;;;33.58;;
35114;SDS011;21292;52.416;13.046;2022-12-18T06:20:33;130.43;;;33.35;;
35114;SDS011;21292;52.416;13.046;2022-12-18T06:23:03;132.02;;;34.17;;
35114;SDS011;21292;52.416;13.046;2022-12-18T06:25:31;134.95;;;31.23;;
35114;SDS011;21292;52.416;13.046;2022-12-18T06:27:59;125.80;;;31.42;;
35114;SDS011;21292;52.416;13.046;2022-12-18T06:30:27;133.18;;;33.97;;
35114;SDS011;21292;52.416;13.046;2022-12-18T06:32:55;134.02;;;32.15;;
35114;SDS011;21292;52.416;13.046;2022-12-18T06:35:25;131.38;;;32.20;;
35114;SDS011;21292;52.416;13.046;2022-12-18T06:37:53;118.57;;;30.00;;
35114;SDS011;21292;52.416;13.046;2022-12-18T06:40:21;137.20;;;32.13;;
35114;SDS011;21292;52.416;13.046;2022-12-18T06:42:49;138.88;;;35.70;;
35114;SDS011;21292;52.416;13.046;2022-12-18T06:45:18;158.50;;;34.38;;
35114;SDS011;21292;52.416;13.046;2022-12-18T06:47:46;144.65;;;33.00;;
35114;SDS011;21292;52.416;13.046;2022-12-18T06:50:14;143.00;;;32.97;;
35114;SDS011;21292;52.416;13.046;2022-12-18T06:52:43;138.80;;;35.15;;
35114;SDS011;21292;52.416;13.046;2022-12-18T06:55:12;128.60;;;29.65;;
35114;SDS011;21292;52.416;13.046;2022-12-18T06:57:40;134.05;;;34.78;;
35114;SDS011;21292;52.416;13.046;2022-12-18T07:00:08;142.63;;;33.30;;
35114;SDS011;21292;52.416;13.046;2022-12-18T07:02:37;136.70;;;34.67;;
35114;SDS011;21292;52.416;13.046;2022-12-18T07:05:06;133.68;;;35.25;;
35114;SDS011;21292;52.416;13.046;2022-12-18T07:07:36;137.90;;;34.05;;
35114;SDS011;21292;52.416;13.046;2022-12-18T07:10:06;126.20;;;33.42;;
35114;SDS011;21292;52.416;13.046;2022-12-18T07:12:34;135.73;;;34.47;;
35114;SDS011;21292;52.416;13.046;2022-12-18T07:15:03;101.07;;;27.65;;
35114;SDS011;21292;52.416;13.046;2022-12-18T07:17:32;134.43;;;34.78;;
35114;SDS011;21292;52.416;13.046;2022-12-18T07:20:00;162.40;;;36.80;;
35114;SDS011;21292;52.416;13.046;2022-12-18T07:22:28;131.68;;;34.22;;
35114;SDS011;21292;52.416;13.046;2022-12-18T07:24:56;122.55;;;34.65;;
35114;SDS011;21292;52.416;13.046;2022-12-18T07:27:26;135.73;;;36.90;;
35114;SDS011;21292;52.416;13.046;2022-12-18T07:29:55;146.80;;;35.15;;
35114;SDS011;21292;52.416;13.046;2022-12-18T07:32:23;135.18;;;34.15;;
35114;SDS011;21292;52.416;13.046;2022-12-18T07:34:51;137.25;;;34.53;;
35114;SDS011;21292;52.416;13.046;2022-12-18T07:37:19;110.70;;;28.67;;
35114;SDS011;21292;52.416;13.046;2022-12-18T07:39:47;143.52;;;35.80;;
35114;SDS011;21292;52.416;13.046;2022-12-18T07:42:17;143.18;;;34.15;;
35114;SDS011;21292;52.416;13.046;2022-12-18T07:45:03;139.75;;;36.85;;
35114;SDS011;21292;52.416;13.046;2022-12-18T07:47:33;140.45;;;39.40;;
35114;SDS011;21292;52.416;13.046;2022-12-18T07:50:02;156.32;;;42.53;;
35114;SDS011;21292;52.416;13.046;2022-12-18T07:52:30;164.15;;;39.58;;
35114;SDS011;21292;52.416;13.046;2022-12-18T07:54:59;172.32;;;35.55;;
35114;SDS011;21292;52.416;13.046;2022-12-18T07:57:27;152.70;;;38.28;;
35114;SDS011;21292;52.416;13.046;2022-12-18T08:00:16;142.18;;;37.63;;
35114;SDS011;21292;52.416;13.046;2022-12-18T08:05:15;144.07;;;35.58;;
35114;SDS011;21292;52.416;13.046;2022-12-18T08:07:43;138.68;;;36.85;;
35114;SDS011;21292;52.416;13.046;2022-12-18T08:10:11;136.88;;;35.92;;
35114;SDS011;21292;52.416;13.046;2022-12-18T08:12:41;117.45;;;33.80;;
35114;SDS011;21292;52.416;13.046;2022-12-18T08:15:09;150.18;;;39.10;;
35114;SDS011;21292;52.416;13.046;2022-12-18T08:17:39;145.73;;;40.92;;
35114;SDS011;21292;52.416;13.046;2022-12-18T08:20:07;146.23;;;36.92;;
35114;SDS011;21292;52.416;13.046;2022-12-18T08:22:36;121.72;;;31.70;;
35114;SDS011;21292;52.416;13.046;2022-12-18T08:25:06;125.63;;;37.33;;
35114;SDS011;21292;52.416;13.046;2022-12-18T08:27:34;131.90;;;36.53;;
35114;SDS011;21292;52.416;13.046;2022-12-18T08:30:03;143.60;;;36.53;;
35114;SDS011;21292;52.416;13.046;2022-12-18T08:32:32;107.25;;;31.00;;
35114;SDS011;21292;52.416;13.046;2022-12-18T08:35:02;132.27;;;34.58;;
35114;SDS011;21292;52.416;13.046;2022-12-18T08:37:30;133.68;;;34.67;;
35114;SDS011;21292;52.416;13.046;2022-12-18T08:39:59;126.55;;;34.03;;
35114;SDS011;21292;52.416;13.046;2022-12-18T08:42:27;136.30;;;34.85;;
35114;SDS011;21292;52.416;13.046;2022-12-18T08:45:13;137.32;;;36.17;;
35114;SDS011;21292;52.416;13.046;2022-12-18T08:47:42;124.30;;;33.30;;
35114;SDS011;21292;52.416;13.046;2022-12-18T08:50:11;110.30;;;32.70;;
35114;SDS011;21292;52.416;13.046;2022-12-18T08:52:39;126.60;;;33.03;;
35114;SDS011;21292;52.416;13.046;2022-12-18T08:55:08;107.63;;;30.40;;
35114;SDS011;21292;52.416;13.046;2022-12-18T08:57:36;108.55;;;28.45;;
35114;SDS011;21292;52.416;13.046;2022-12-18T09:00:05;104.93;;;33.90;;
35114;SDS011;21292;52.416;13.046;2022-12-18T09:02:34;116.30;;;32.45;;
35114;SDS011;21292;52.416;13.046;2022-12-18T09:05:02;115.45;;;31.95;;
35114;SDS011;21292;52.416;13.046;2022-12-18T09:07:32;123.88;;;34.13;;
35114;SDS011;21292;52.416;13.046;2022-12-18T09:10:00;114.50;;;33.40;;
35114;SDS011;21292;52.416;13.046;2022-12-18T09:12:28;127.53;;;35.42;;
35114;SDS011;21292;52.416;13.046;2022-12-18T09:14:56;126.95;;;34.17;;
35114;SDS011;21292;52.416;13.046;2022-12-18T09:17:24;107.90;;;32.03;;
35114;SDS011;21292;52.416;13.046;2022-12-18T09:19:52;102.07;;;33.03;;
35114;SDS011;21292;52.416;13.046;2022-12-18T09:22:21;114.53;;;32.65;;
35114;SDS011;21292;52.416;13.046;2022-12-18T09:24:50;96.93;;;29.02;;
35114;SDS011;21292;52.416;13.046;2022-12-18T09:27:18;104.07;;;30.92;;
35114;SDS011;21292;52.416;13.046;2022-12-18T09:29:46;101.20;;;31.08;;
35114;SDS011;21292;52.416;13.046;2022-12-18T09:32:14;92.07;;;25.77;;
35114;SDS011;21292;52.416;13.046;2022-12-18T09:34:48;129.23;;;33.00;;
35114;SDS011;21292;52.416;13.046;2022-12-18T09:37:16;116.95;;;31.38;;
35114;SDS011;21292;52.416;13.046;2022-12-18T09:39:44;121.28;;;33.28;;
35114;SDS011;21292;52.416;13.046;2022-12-18T09:42:17;114.38;;;31.45;;
35114;SDS011;21292;52.416;13.046;2022-12-18T09:44:49;104.47;;;31.77;;
35114;SDS011;21292;52.416;13.046;2022-12-18T09:47:18;108.88;;;34.03;;
35114;SDS011;21292;52.416;13.046;2022-12-18T09:49:50;114.03;;;33.33;;
35114;SDS011;21292;52.416;13.046;2022-12-18T09:52:21;116.53;;;32.53;;
35114;SDS011;21292;52.416;13.046;2022-12-18T09:54:53;111.57;;;32.70;;
35114;SDS011;21292;52.416;13.046;2022-12-18T09:57:25;108.47;;;31.40;;
35114;SDS011;21292;52.416;13.046;2022-12-18T09:59:55;117.03;;;33.78;;
35114;SDS011;21292;52.416;13.046;2022-12-18T10:02:26;104.97;;;29.05;;
35114;SDS011;21292;52.416;13.046;2022-12-18T10:05:05;112.65;;;32.65;;
35114;SDS011;21292;52.416;13.046;2022-12-18T10:07:40;115.70;;;33.88;;
35114;SDS011;21292;52.416;13.046;2022-12-18T10:10:14;109.93;;;33.20;;
35114;SDS011;21292;52.416;13.046;2022-12-18T10:12:52;124.45;;;36.63;;
35114;SDS011;21292;52.416;13.046;2022-12-18T10:15:31;133.18;;;37.33;;
35114;SDS011;21292;52.416;13.046;2022-12-18T10:18:06;125.28;;;35.92;;
35114;SDS011;21292;52.416;13.046;2022-12-18T10:20:48;124.95;;;35.50;;
35114;SDS011;21292;52.416;13.046;2022-12-18T10:23:18;124.40;;;36.30;;
35114;SDS011;21292;52.416;13.046;2022-12-18T10:25:53;125.05;;;35.83;;
35114;SDS011;21292;52.416;13.046;2022-12-18T10:28:24;129.65;;;35.33;;
35114;SDS011;21292;52.416;13.046;2022-12-18T10:30:53;135.23;;;37.78;;
35114;SDS011;21292;52.416;13.046;2022-12-18T10:33:22;107.00;;;33.55;;
35114;SDS011;21292;52.416;13.046;2022-12-18T10:35:51;120.18;;;33.20;;
35114;SDS011;21292;52.416;13.046;2022-12-18T10:38:21;117.03;;;36.65;;
35114;SDS011;21292;52.416;13.046;2022-12-18T10:40:51;118.30;;;34.45;;
35114;SDS011;21292;52.416;13.046;2022-12-18T10:43:22;116.80;;;36.05;;
35114;SDS011;21292;52.416;13.046;2022-12-18T10:48:53;103.95;;;33.58;;
35114;SDS011;21292;52.416;13.046;2022-12-18T10:51:23;89.32;;;25.38;;
35114;SDS011;21292;52.416;13.046;2022-12-18T10:53:57;92.43;;;26.85;;
35114;SDS011;21292;52.416;13.046;2022-12-18T10:56:29;97.35;;;28.73;;
35114;SDS011;21292;52.416;13.046;2022-12-18T10:59:01;99.82;;;29.13;;
35114;SDS011;21292;52.416;13.046;2022-12-18T11:01:44;74.63;;;26.23;;
35114;SDS011;21292;52.416;13.046;2022-12-18T11:04:16;76.25;;;26.42;;
35114;SDS011;21292;52.416;13.046;2022-12-18T11:06:53;79.35;;;24.67;;
35114;SDS011;21292;52.416;13.046;2022-12-18T11:09:23;84.13;;;26.95;;
35114;SDS011;21292;52.416;13.046;2022-12-18T11:11:52;80.47;;;25.55;;
35114;SDS011;21292;52.416;13.046;2022-12-18T11:14:23;85.60;;;28.73;;
35114;SDS011;21292;52.416;13.046;2022-12-18T11:16:52;86.07;;;26.58;;
35114;SDS011;21292;52.416;13.046;2022-12-18T11:19:42;92.47;;;27.75;;
35114;SDS011;21292;52.416;13.046;2022-12-18T11:22:17;83.95;;;29.05;;
35114;SDS011;21292;52.416;13.046;2022-12-18T11:24:52;101.78;;;31.27;;
35114;SDS011;21292;52.416;13.046;2022-12-18T11:27:41;86.20;;;26.73;;
35114;SDS011;21292;52.416;13.046;2022-12-18T11:30:21;85.40;;;27.55;;
35114;SDS011;21292;52.416;13.046;2022-12-18T11:32:51;80.00;;;25.55;;
35114;SDS011;21292;52.416;13.046;2022-12-18T11:35:23;86.07;;;26.65;;
35114;SDS011;21292;52.416;13.046;2022-12-18T11:37:59;84.88;;;27.42;;
35114;SDS011;21292;52.416;13.046;2022-12-18T11:40:33;64.45;;;22.33;;
35114;SDS011;21292;52.416;13.046;2022-12-18T11:43:09;89.80;;;29.75;;
35114;SDS011;21292;52.416;13.046;2022-12-18T11:45:43;88.75;;;29.27;;
35114;SDS011;21292;52.416;13.046;2022-12-18T11:48:16;85.28;;;28.10;;
35114;SDS011;21292;52.416;13.046;2022-12-18T11:50:46;89.88;;;30.08;;
35114;SDS011;21292;52.416;13.046;2022-12-18T11:53:17;92.30;;;28.10;;
35114;SDS011;21292;52.416;13.046;2022-12-18T11:55:49;91.75;;;29.45;;
35114;SDS011;21292;52.416;13.046;2022-12-18T11:58:28;86.75;;;26.17;;
35114;SDS011;21292;52.416;13.046;2022-12-18T12:01:06;80.78;;;27.45;;
35114;SDS011;21292;52.416;13.046;2022-12-18T12:03:48;85.30;;;29.10;;
35114;SDS011;21292;52.416;13.046;2022-12-18T12:06:22;65.53;;;21.65;;
35114;SDS011;21292;52.416;13.046;2022-12-18T12:08:57;61.78;;;24.10;;
35114;SDS011;21292;52.416;13.046;2022-12-18T12:11:33;70.18;;;25.58;;
35114;SDS011;21292;52.416;13.046;2022-12-18T12:14:08;74.13;;;25.52;;
35114;SDS011;21292;52.416;13.046;2022-12-18T12:17:02;70.07;;;23.92;;
35114;SDS011;21292;52.416;13.046;2022-12-18T12:19:36;66.25;;;24.20;;
35114;SDS011;21292;52.416;13.046;2022-12-18T12:22:09;77.25;;;26.90;;
35114;SDS011;21292;52.416;13.046;2022-12-18T12:24:46;59.92;;;23.50;;
35114;SDS011;21292;52.416;13.046;2022-12-18T12:27:22;63.72;;;24.25;;
35114;SDS011;21292;52.416;13.046;2022-12-18T12:29:59;61.95;;;22.40;;
35114;SDS011;21292;52.416;13.046;2022-12-18T12:32:39;59.53;;;22.92;;
35114;SDS011;21292;52.416;13.046;2022-12-18T12:35:21;65.20;;;24.00;;
35114;SDS011;21292;52.416;13.046;2022-12-18T12:37:56;67.00;;;24.52;;
35114;SDS011;21292;52.416;13.046;2022-12-18T12:40:33;68.38;;;26.58;;
35114;SDS011;21292;52.416;13.046;2022-12-18T12:43:25;62.65;;;22.85;;
35114;SDS011;21292;52.416;13.046;2022-12-18T12:45:57;60.60;;;23.63;;
35114;SDS011;21292;52.416;13.046;2022-12-18T12:48:32;61.03;;;22.13;;
35114;SDS011;21292;52.416;13.046;2022-12-18T12:51:06;66.03;;;25.58;;
35114;SDS011;21292;52.416;13.046;2022-12-18T12:53:39;61.15;;;23.25;;
35114;SDS011;21292;52.416;13.046;2022-12-18T12:56:08;57.13;;;23.73;;
35114;SDS011;21292;52.416;13.046;2022-12-18T12:58:40;49.63;;;20.35;;
35114;SDS011;21292;52.416;13.046;2022-12-18T13:01:16;56.58;;;22.65;;
35114;SDS011;21292;52.416;13.046;2022-12-18T13:03:54;58.45;;;21.20;;
35114;SDS011;21292;52.416;13.046;2022-12-18T13:06:29;55.60;;;21.15;;
35114;SDS011;21292;52.416;13.046;2022-12-18T13:09:10;64.88;;;24.83;;
35114;SDS011;21292;52.416;13.046;2022-12-18T13:11:39;64.47;;;23.40;;
35114;SDS011;21292;52.416;13.046;2022-12-18T13:14:27;65.82;;;25.80;;
35114;SDS011;21292;52.416;13.046;2022-12-18T13:17:17;51.35;;;20.02;;
35114;SDS011;21292;52.416;13.046;2022-12-18T13:20:04;67.97;;;25.58;;
35114;SDS011;21292;52.416;13.046;2022-12-18T13:22:37;63.75;;;23.35;;
35114;SDS011;21292;52.416;13.046;2022-12-18T13:28:07;59.00;;;23.58;;
35114;SDS011;21292;52.416;13.046;2022-12-18T13:33:34;63.35;;;23.92;;
35114;SDS011;21292;52.416;13.046;2022-12-18T13:36:31;64.03;;;25.15;;
35114;SDS011;21292;52.416;13.046;2022-12-18T13:45:36;46.35;;;18.70;;
35114;SDS011;21292;52.416;13.046;2022-12-18T13:48:14;63.67;;;24.52;;
35114;SDS011;21292;52.416;13.046;2022-12-18T13:50:45;56.83;;;19.17;;
35114;SDS011;21292;52.416;13.046;2022-12-18T13:53:19;61.95;;;23.73;;
35114;SDS011;21292;52.416;13.046;2022-12-18T13:55:50;66.80;;;25.65;;
35114;SDS011;21292;52.416;13.046;2022-12-18T13:58:18;65.13;;;24.83;;
35114;SDS011;21292;52.416;13.046;2022-12-18T14:00:46;70.85;;;26.52;;
35114;SDS011;21292;52.416;13.046;2022-12-18T14:03:17;79.28;;;29.60;;
35114;SDS011;21292;52.416;13.046;2022-12-18T14:05:52;63.42;;;23.27;;
35114;SDS011;21292;52.416;13.046;2022-12-18T14:08:24;79.07;;;29.23;;
35114;SDS011;21292;52.416;13.046;2022-12-18T14:10:53;80.37;;;30.90;;
35114;SDS011;21292;52.416;13.046;2022-12-18T14:13:23;82.72;;;27.95;;
35114;SDS011;21292;52.416;13.046;2022-12-18T14:15:52;77.18;;;30.23;;
35114;SDS011;21292;52.416;13.046;2022-12-18T14:18:22;66.28;;;24.77;;
35114;SDS011;21292;52.416;13.046;2022-12-18T14:20:52;67.85;;;26.50;;
35114;SDS011;21292;52.416;13.046;2022-12-18T14:23:30;76.80;;;26.45;;
35114;SDS011;21292;52.416;13.046;2022-12-18T14:26:00;75.78;;;26.85;;
35114;SDS011;21292;52.416;13.046;2022-12-18T14:28:32;69.80;;;29.73;;
35114;SDS011;21292;52.416;13.046;2022-12-18T14:31:00;71.82;;;28.90;;
35114;SDS011;21292;52.416;13.046;2022-12-18T14:33:28;71.85;;;30.17;;
35114;SDS011;21292;52.416;13.046;2022-12-18T14:35:57;64.90;;;25.80;;
35114;SDS011;21292;52.416;13.046;2022-12-18T14:38:28;45.38;;;20.35;;
35114;SDS011;21292;52.416;13.046;2022-12-18T14:40:59;57.17;;;24.02;;
35114;SDS011;21292;52.416;13.046;2022-12-18T14:43:29;63.53;;;24.35;;
35114;SDS011;21292;52.416;13.046;2022-12-18T14:45:59;55.50;;;23.98;;